sensor_id;sensor_type;location;lat;lon;timestamp;P1;durP1;ratioP1;P2;durP2;ratioP2
42084;SDS011;27746;52.228;20.890;2023-11-21T00:01:27;35.85;;;17.13;;
42084;SDS011;27746;52.228;20.890;2023-11-21T00:03:54;35.63;;;17.90;;
42084;SDS011;27746;52.228;20.890;2023-11-21T00:06:20;37.03;;;17.05;;
42084;SDS011;27746;52.228;20.890;2023-11-21T00:08:48;34.47;;;17.65;;
42084;SDS011;27746;52.228;20.890;2023-11-21T00:11:15;39.83;;;17.85;;
42084;SDS011;27746;52.228;20.890;2023-11-21T00:13:41;37.47;;;18.48;;
42084;SDS011;27746;52.228;20.890;2023-11-21T00:16:09;34.28;;;17.90;;
42084;SDS011;27746;52.228;20.890;2023-11-21T00:18:37;35.42;;;17.38;;
42084;SDS011;27746;52.228;20.890;2023-11-21T00:21:04;33.58;;;17.25;;
42084;SDS011;27746;52.228;20.890;2023-11-21T00:23:31;33.25;;;17.27;;
42084;SDS011;27746;52.228;20.890;2023-11-21T00:25:58;33.10;;;16.85;;
42084;SDS011;27746;52.228;20.890;2023-11-21T00:28:26;34.85;;;17.08;;
42084;SDS011;27746;52.228;20.890;2023-11-21T00:30:52;35.35;;;17.20;;
42084;SDS011;27746;52.228;20.890;2023-11-21T00:33:20;35.75;;;15.50;;
42084;SDS011;27746;52.228;20.890;2023-11-21T00:35:48;40.63;;;18.02;;
42084;SDS011;27746;52.228;20.890;2023-11-21T00:38:15;35.35;;;15.82;;
42084;SDS011;27746;52.228;20.890;2023-11-21T00:40:44;34.15;;;16.45;;
42084;SDS011;27746;52.228;20.890;2023-11-21T00:43:11;34.85;;;16.50;;
42084;SDS011;27746;52.228;20.890;2023-11-21T00:45:39;37.05;;;17.50;;
42084;SDS011;27746;52.228;20.890;2023-11-21T00:48:06;42.00;;;19.35;;
42084;SDS011;27746;52.228;20.890;2023-11-21T00:50:33;37.35;;;17.48;;
42084;SDS011;27746;52.228;20.890;2023-11-21T00:53:01;33.65;;;16.15;;
42084;SDS011;27746;52.228;20.890;2023-11-21T00:55:28;36.67;;;16.20;;
42084;SDS011;27746;52.228;20.890;2023-11-21T00:57:55;33.92;;;18.17;;
42084;SDS011;27746;52.228;20.890;2023-11-21T01:00:23;37.13;;;17.58;;
42084;SDS011;27746;52.228;20.890;2023-11-21T01:02:50;39.80;;;16.67;;
42084;SDS011;27746;52.228;20.890;2023-11-21T01:05:17;36.45;;;16.58;;
42084;SDS011;27746;52.228;20.890;2023-11-21T01:07:44;34.38;;;16.45;;
42084;SDS011;27746;52.228;20.890;2023-11-21T01:10:13;39.50;;;17.27;;
42084;SDS011;27746;52.228;20.890;2023-11-21T01:12:42;37.13;;;17.70;;
42084;SDS011;27746;52.228;20.890;2023-11-21T01:15:09;35.35;;;17.40;;
42084;SDS011;27746;52.228;20.890;2023-11-21T01:17:37;41.15;;;18.35;;
42084;SDS011;27746;52.228;20.890;2023-11-21T01:20:05;37.63;;;17.52;;
42084;SDS011;27746;52.228;20.890;2023-11-21T01:22:36;37.13;;;17.40;;
42084;SDS011;27746;52.228;20.890;2023-11-21T01:25:04;40.05;;;18.58;;
42084;SDS011;27746;52.228;20.890;2023-11-21T01:27:33;35.03;;;17.38;;
42084;SDS011;27746;52.228;20.890;2023-11-21T01:30:01;34.30;;;17.00;;
42084;SDS011;27746;52.228;20.890;2023-11-21T01:32:28;41.17;;;17.58;;
42084;SDS011;27746;52.228;20.890;2023-11-21T01:34:55;36.83;;;17.38;;
42084;SDS011;27746;52.228;20.890;2023-11-21T01:37:23;40.00;;;17.52;;
42084;SDS011;27746;52.228;20.890;2023-11-21T01:39:52;40.95;;;19.75;;
42084;SDS011;27746;52.228;20.890;2023-11-21T01:42:20;42.33;;;19.88;;
42084;SDS011;27746;52.228;20.890;2023-11-21T01:44:48;34.42;;;18.17;;
42084;SDS011;27746;52.228;20.890;2023-11-21T01:47:14;36.47;;;18.42;;
42084;SDS011;27746;52.228;20.890;2023-11-21T01:49:43;38.95;;;18.10;;
42084;SDS011;27746;52.228;20.890;2023-11-21T01:52:11;39.92;;;19.27;;
42084;SDS011;27746;52.228;20.890;2023-11-21T01:54:38;32.58;;;16.63;;
42084;SDS011;27746;52.228;20.890;2023-11-21T01:57:06;33.20;;;17.77;;
42084;SDS011;27746;52.228;20.890;2023-11-21T01:59:34;36.33;;;17.58;;
42084;SDS011;27746;52.228;20.890;2023-11-21T02:02:04;34.80;;;17.90;;
42084;SDS011;27746;52.228;20.890;2023-11-21T02:04:31;44.15;;;20.52;;
42084;SDS011;27746;52.228;20.890;2023-11-21T02:06:59;40.55;;;19.35;;
42084;SDS011;27746;52.228;20.890;2023-11-21T02:09:26;39.63;;;19.38;;
42084;SDS011;27746;52.228;20.890;2023-11-21T02:11:53;42.38;;;20.42;;
42084;SDS011;27746;52.228;20.890;2023-11-21T02:14:21;32.38;;;18.02;;
42084;SDS011;27746;52.228;20.890;2023-11-21T02:16:48;34.53;;;19.75;;
42084;SDS011;27746;52.228;20.890;2023-11-21T02:19:18;35.60;;;17.80;;
42084;SDS011;27746;52.228;20.890;2023-11-21T02:21:47;40.20;;;18.55;;
42084;SDS011;27746;52.228;20.890;2023-11-21T02:24:17;36.22;;;19.40;;
42084;SDS011;27746;52.228;20.890;2023-11-21T02:26:45;35.40;;;18.85;;
42084;SDS011;27746;52.228;20.890;2023-11-21T02:29:12;36.20;;;18.00;;
42084;SDS011;27746;52.228;20.890;2023-11-21T02:31:41;37.80;;;18.42;;
42084;SDS011;27746;52.228;20.890;2023-11-21T02:34:13;35.38;;;17.30;;
42084;SDS011;27746;52.228;20.890;2023-11-21T02:36:40;32.67;;;16.65;;
42084;SDS011;27746;52.228;20.890;2023-11-21T02:39:07;35.53;;;16.38;;
42084;SDS011;27746;52.228;20.890;2023-11-21T02:41:36;33.85;;;17.48;;
42084;SDS011;27746;52.228;20.890;2023-11-21T02:44:04;33.88;;;17.75;;
42084;SDS011;27746;52.228;20.890;2023-11-21T02:46:31;29.65;;;16.15;;
42084;SDS011;27746;52.228;20.890;2023-11-21T02:48:59;30.17;;;15.05;;
42084;SDS011;27746;52.228;20.890;2023-11-21T02:51:26;30.23;;;14.77;;
42084;SDS011;27746;52.228;20.890;2023-11-21T02:53:53;33.10;;;16.35;;
42084;SDS011;27746;52.228;20.890;2023-11-21T02:56:23;32.03;;;15.80;;
42084;SDS011;27746;52.228;20.890;2023-11-21T02:58:52;35.72;;;17.35;;
42084;SDS011;27746;52.228;20.890;2023-11-21T03:01:19;29.60;;;16.40;;
42084;SDS011;27746;52.228;20.890;2023-11-21T03:03:46;38.58;;;18.83;;
42084;SDS011;27746;52.228;20.890;2023-11-21T03:06:15;33.15;;;17.42;;
42084;SDS011;27746;52.228;20.890;2023-11-21T03:08:42;32.60;;;15.63;;
42084;SDS011;27746;52.228;20.890;2023-11-21T03:11:09;34.97;;;16.75;;
42084;SDS011;27746;52.228;20.890;2023-11-21T03:13:36;30.27;;;15.75;;
42084;SDS011;27746;52.228;20.890;2023-11-21T03:16:05;32.22;;;15.48;;
42084;SDS011;27746;52.228;20.890;2023-11-21T03:18:33;36.97;;;16.70;;
42084;SDS011;27746;52.228;20.890;2023-11-21T03:21:01;33.35;;;15.80;;
42084;SDS011;27746;52.228;20.890;2023-11-21T03:23:28;29.92;;;15.82;;
42084;SDS011;27746;52.228;20.890;2023-11-21T03:25:55;34.53;;;17.02;;
42084;SDS011;27746;52.228;20.890;2023-11-21T03:28:22;36.53;;;16.70;;
42084;SDS011;27746;52.228;20.890;2023-11-21T03:30:49;32.65;;;16.08;;
42084;SDS011;27746;52.228;20.890;2023-11-21T03:33:18;33.15;;;16.73;;
42084;SDS011;27746;52.228;20.890;2023-11-21T03:35:45;27.42;;;14.50;;
42084;SDS011;27746;52.228;20.890;2023-11-21T03:38:12;31.02;;;16.38;;
42084;SDS011;27746;52.228;20.890;2023-11-21T03:40:39;34.65;;;16.60;;
42084;SDS011;27746;52.228;20.890;2023-11-21T03:43:06;33.58;;;17.52;;
42084;SDS011;27746;52.228;20.890;2023-11-21T03:45:33;37.25;;;18.70;;
42084;SDS011;27746;52.228;20.890;2023-11-21T03:48:01;31.45;;;15.75;;
42084;SDS011;27746;52.228;20.890;2023-11-21T03:50:29;33.60;;;17.63;;
42084;SDS011;27746;52.228;20.890;2023-11-21T03:52:56;32.47;;;16.27;;
42084;SDS011;27746;52.228;20.890;2023-11-21T03:55:23;33.65;;;15.90;;
42084;SDS011;27746;52.228;20.890;2023-11-21T03:57:50;31.58;;;17.48;;
42084;SDS011;27746;52.228;20.890;2023-11-21T04:00:17;32.83;;;15.27;;
42084;SDS011;27746;52.228;20.890;2023-11-21T04:02:45;30.65;;;15.43;;
42084;SDS011;27746;52.228;20.890;2023-11-21T04:05:13;29.33;;;14.27;;
42084;SDS011;27746;52.228;20.890;2023-11-21T04:07:41;29.90;;;14.20;;
42084;SDS011;27746;52.228;20.890;2023-11-21T04:10:08;29.00;;;14.43;;
42084;SDS011;27746;52.228;20.890;2023-11-21T04:12:37;28.95;;;14.05;;
42084;SDS011;27746;52.228;20.890;2023-11-21T04:15:05;30.38;;;14.32;;
42084;SDS011;27746;52.228;20.890;2023-11-21T04:17:33;24.38;;;13.60;;
42084;SDS011;27746;52.228;20.890;2023-11-21T04:20:01;28.00;;;14.07;;
42084;SDS011;27746;52.228;20.890;2023-11-21T04:22:33;26.65;;;13.75;;
42084;SDS011;27746;52.228;20.890;2023-11-21T04:25:01;27.40;;;14.63;;
42084;SDS011;27746;52.228;20.890;2023-11-21T04:27:29;31.50;;;15.35;;
42084;SDS011;27746;52.228;20.890;2023-11-21T04:29:57;27.27;;;14.70;;
42084;SDS011;27746;52.228;20.890;2023-11-21T04:32:24;27.20;;;12.60;;
42084;SDS011;27746;52.228;20.890;2023-11-21T04:34:51;24.17;;;11.68;;
42084;SDS011;27746;52.228;20.890;2023-11-21T04:37:18;24.05;;;11.52;;
42084;SDS011;27746;52.228;20.890;2023-11-21T04:39:45;23.60;;;13.30;;
42084;SDS011;27746;52.228;20.890;2023-11-21T04:42:13;19.98;;;11.52;;
42084;SDS011;27746;52.228;20.890;2023-11-21T04:44:40;23.42;;;11.98;;
42084;SDS011;27746;52.228;20.890;2023-11-21T04:47:09;22.35;;;12.45;;
42084;SDS011;27746;52.228;20.890;2023-11-21T04:49:36;25.15;;;12.45;;
42084;SDS011;27746;52.228;20.890;2023-11-21T04:52:03;23.15;;;11.90;;
42084;SDS011;27746;52.228;20.890;2023-11-21T04:54:30;24.55;;;13.05;;
42084;SDS011;27746;52.228;20.890;2023-11-21T04:56:57;25.65;;;13.25;;
42084;SDS011;27746;52.228;20.890;2023-11-21T04:59:25;25.20;;;12.20;;
42084;SDS011;27746;52.228;20.890;2023-11-21T05:01:52;25.35;;;12.23;;
42084;SDS011;27746;52.228;20.890;2023-11-21T05:04:19;28.67;;;12.82;;
42084;SDS011;27746;52.228;20.890;2023-11-21T05:06:47;24.27;;;12.45;;
42084;SDS011;27746;52.228;20.890;2023-11-21T05:09:14;21.75;;;11.82;;
42084;SDS011;27746;52.228;20.890;2023-11-21T05:11:42;23.20;;;12.85;;
42084;SDS011;27746;52.228;20.890;2023-11-21T05:14:08;20.58;;;10.55;;
42084;SDS011;27746;52.228;20.890;2023-11-21T05:16:37;23.38;;;11.73;;
42084;SDS011;27746;52.228;20.890;2023-11-21T05:19:04;22.70;;;11.80;;
42084;SDS011;27746;52.228;20.890;2023-11-21T05:21:31;27.77;;;14.40;;
42084;SDS011;27746;52.228;20.890;2023-11-21T05:23:58;23.20;;;11.73;;
42084;SDS011;27746;52.228;20.890;2023-11-21T05:26:25;26.13;;;12.57;;
42084;SDS011;27746;52.228;20.890;2023-11-21T05:28:52;19.55;;;10.50;;
42084;SDS011;27746;52.228;20.890;2023-11-21T05:31:19;20.13;;;10.55;;
42084;SDS011;27746;52.228;20.890;2023-11-21T05:33:48;24.13;;;12.43;;
42084;SDS011;27746;52.228;20.890;2023-11-21T05:36:15;21.33;;;11.07;;
42084;SDS011;27746;52.228;20.890;2023-11-21T05:38:41;20.15;;;10.75;;
42084;SDS011;27746;52.228;20.890;2023-11-21T05:41:09;23.60;;;11.68;;
42084;SDS011;27746;52.228;20.890;2023-11-21T05:43:38;25.13;;;12.63;;
42084;SDS011;27746;52.228;20.890;2023-11-21T05:46:05;25.00;;;11.27;;
42084;SDS011;27746;52.228;20.890;2023-11-21T05:48:34;21.00;;;11.30;;
42084;SDS011;27746;52.228;20.890;2023-11-21T05:51:03;24.38;;;11.43;;
42084;SDS011;27746;52.228;20.890;2023-11-21T05:53:30;20.00;;;10.95;;
42084;SDS011;27746;52.228;20.890;2023-11-21T05:55:57;20.60;;;10.65;;
42084;SDS011;27746;52.228;20.890;2023-11-21T05:58:24;19.33;;;10.73;;
42084;SDS011;27746;52.228;20.890;2023-11-21T06:00:51;21.27;;;11.18;;
42084;SDS011;27746;52.228;20.890;2023-11-21T06:03:18;20.60;;;10.20;;
42084;SDS011;27746;52.228;20.890;2023-11-21T06:05:45;18.98;;;10.75;;
42084;SDS011;27746;52.228;20.890;2023-11-21T06:08:13;20.00;;;11.60;;
42084;SDS011;27746;52.228;20.890;2023-11-21T06:10:41;17.58;;;10.43;;
42084;SDS011;27746;52.228;20.890;2023-11-21T06:13:09;18.85;;;10.48;;
42084;SDS011;27746;52.228;20.890;2023-11-21T06:15:36;23.35;;;11.02;;
42084;SDS011;27746;52.228;20.890;2023-11-21T06:18:04;18.67;;;10.15;;
42084;SDS011;27746;52.228;20.890;2023-11-21T06:20:35;20.20;;;10.35;;
42084;SDS011;27746;52.228;20.890;2023-11-21T06:23:03;21.05;;;10.55;;
42084;SDS011;27746;52.228;20.890;2023-11-21T06:25:32;18.30;;;9.75;;
42084;SDS011;27746;52.228;20.890;2023-11-21T06:28:01;18.77;;;10.40;;
42084;SDS011;27746;52.228;20.890;2023-11-21T06:30:28;22.98;;;10.27;;
42084;SDS011;27746;52.228;20.890;2023-11-21T06:32:55;23.67;;;11.55;;
42084;SDS011;27746;52.228;20.890;2023-11-21T06:35:22;28.20;;;13.35;;
42084;SDS011;27746;52.228;20.890;2023-11-21T06:37:49;24.58;;;12.10;;
42084;SDS011;27746;52.228;20.890;2023-11-21T06:40:17;22.45;;;12.38;;
42084;SDS011;27746;52.228;20.890;2023-11-21T06:42:46;21.75;;;11.70;;
42084;SDS011;27746;52.228;20.890;2023-11-21T06:45:13;23.05;;;11.55;;
42084;SDS011;27746;52.228;20.890;2023-11-21T06:47:41;24.50;;;10.95;;
42084;SDS011;27746;52.228;20.890;2023-11-21T06:50:08;26.40;;;11.45;;
42084;SDS011;27746;52.228;20.890;2023-11-21T06:52:35;24.38;;;11.50;;
42084;SDS011;27746;52.228;20.890;2023-11-21T06:55:02;20.38;;;11.45;;
42084;SDS011;27746;52.228;20.890;2023-11-21T06:57:29;21.50;;;12.32;;
42084;SDS011;27746;52.228;20.890;2023-11-21T06:59:58;22.45;;;10.95;;
42084;SDS011;27746;52.228;20.890;2023-11-21T07:02:25;23.27;;;11.65;;
42084;SDS011;27746;52.228;20.890;2023-11-21T07:04:53;22.05;;;11.27;;
42084;SDS011;27746;52.228;20.890;2023-11-21T07:07:19;18.83;;;10.43;;
42084;SDS011;27746;52.228;20.890;2023-11-21T07:09:46;27.08;;;13.10;;
42084;SDS011;27746;52.228;20.890;2023-11-21T07:12:14;24.77;;;13.05;;
42084;SDS011;27746;52.228;20.890;2023-11-21T07:14:40;19.38;;;11.10;;
42084;SDS011;27746;52.228;20.890;2023-11-21T07:17:11;27.55;;;12.18;;
42084;SDS011;27746;52.228;20.890;2023-11-21T07:19:38;23.73;;;11.90;;
42084;SDS011;27746;52.228;20.890;2023-11-21T07:22:05;21.58;;;11.02;;
42084;SDS011;27746;52.228;20.890;2023-11-21T07:24:31;28.90;;;12.73;;
42084;SDS011;27746;52.228;20.890;2023-11-21T07:26:59;22.50;;;11.63;;
42084;SDS011;27746;52.228;20.890;2023-11-21T07:29:26;24.15;;;12.02;;
42084;SDS011;27746;52.228;20.890;2023-11-21T07:31:54;23.80;;;11.65;;
42084;SDS011;27746;52.228;20.890;2023-11-21T07:34:22;28.60;;;13.00;;
42084;SDS011;27746;52.228;20.890;2023-11-21T07:36:49;26.65;;;13.63;;
42084;SDS011;27746;52.228;20.890;2023-11-21T07:39:16;26.75;;;12.00;;
42084;SDS011;27746;52.228;20.890;2023-11-21T07:41:43;25.13;;;12.63;;
42084;SDS011;27746;52.228;20.890;2023-11-21T07:44:13;20.80;;;10.45;;
42084;SDS011;27746;52.228;20.890;2023-11-21T07:46:40;23.35;;;11.93;;
42084;SDS011;27746;52.228;20.890;2023-11-21T07:49:07;22.25;;;11.10;;
42084;SDS011;27746;52.228;20.890;2023-11-21T07:51:35;21.95;;;10.98;;
42084;SDS011;27746;52.228;20.890;2023-11-21T07:54:02;24.38;;;11.05;;
42084;SDS011;27746;52.228;20.890;2023-11-21T07:56:30;23.23;;;11.48;;
42084;SDS011;27746;52.228;20.890;2023-11-21T07:58:57;21.90;;;12.18;;
42084;SDS011;27746;52.228;20.890;2023-11-21T08:01:24;22.27;;;10.25;;
42084;SDS011;27746;52.228;20.890;2023-11-21T08:03:53;19.25;;;11.05;;
42084;SDS011;27746;52.228;20.890;2023-11-21T08:06:22;22.30;;;10.45;;
42084;SDS011;27746;52.228;20.890;2023-11-21T08:08:51;24.38;;;12.07;;
42084;SDS011;27746;52.228;20.890;2023-11-21T08:11:17;19.20;;;11.90;;
42084;SDS011;27746;52.228;20.890;2023-11-21T08:13:44;22.30;;;10.93;;
42084;SDS011;27746;52.228;20.890;2023-11-21T08:16:12;25.60;;;11.52;;
42084;SDS011;27746;52.228;20.890;2023-11-21T08:18:40;21.15;;;11.30;;
42084;SDS011;27746;52.228;20.890;2023-11-21T08:21:07;20.90;;;11.60;;
42084;SDS011;27746;52.228;20.890;2023-11-21T08:23:34;28.30;;;12.45;;
42084;SDS011;27746;52.228;20.890;2023-11-21T08:26:02;23.40;;;11.45;;
42084;SDS011;27746;52.228;20.890;2023-11-21T08:28:30;24.85;;;13.38;;
42084;SDS011;27746;52.228;20.890;2023-11-21T08:30:57;21.60;;;11.52;;
42084;SDS011;27746;52.228;20.890;2023-11-21T08:33:24;21.63;;;11.90;;
42084;SDS011;27746;52.228;20.890;2023-11-21T08:35:51;25.30;;;12.57;;
42084;SDS011;27746;52.228;20.890;2023-11-21T08:38:19;22.02;;;12.15;;
42084;SDS011;27746;52.228;20.890;2023-11-21T08:40:45;24.67;;;11.25;;
42084;SDS011;27746;52.228;20.890;2023-11-21T08:43:14;34.83;;;12.00;;
42084;SDS011;27746;52.228;20.890;2023-11-21T08:45:41;22.77;;;11.63;;
42084;SDS011;27746;52.228;20.890;2023-11-21T08:48:10;21.25;;;11.73;;
42084;SDS011;27746;52.228;20.890;2023-11-21T08:50:37;22.60;;;11.73;;
42084;SDS011;27746;52.228;20.890;2023-11-21T08:53:04;25.10;;;11.73;;
42084;SDS011;27746;52.228;20.890;2023-11-21T08:55:31;30.05;;;12.27;;
42084;SDS011;27746;52.228;20.890;2023-11-21T08:58:02;21.83;;;11.57;;
42084;SDS011;27746;52.228;20.890;2023-11-21T09:00:31;21.13;;;10.25;;
42084;SDS011;27746;52.228;20.890;2023-11-21T09:02:58;22.40;;;12.20;;
42084;SDS011;27746;52.228;20.890;2023-11-21T09:05:27;24.10;;;11.75;;
42084;SDS011;27746;52.228;20.890;2023-11-21T09:07:54;24.30;;;11.98;;
42084;SDS011;27746;52.228;20.890;2023-11-21T09:10:21;22.13;;;11.65;;
42084;SDS011;27746;52.228;20.890;2023-11-21T09:12:50;25.00;;;13.15;;
42084;SDS011;27746;52.228;20.890;2023-11-21T09:15:17;30.83;;;14.57;;
42084;SDS011;27746;52.228;20.890;2023-11-21T09:17:46;28.70;;;12.75;;
42084;SDS011;27746;52.228;20.890;2023-11-21T09:20:14;26.05;;;13.38;;
42084;SDS011;27746;52.228;20.890;2023-11-21T09:22:41;25.58;;;12.77;;
42084;SDS011;27746;52.228;20.890;2023-11-21T09:25:09;27.80;;;13.32;;
42084;SDS011;27746;52.228;20.890;2023-11-21T09:27:37;26.38;;;13.00;;
42084;SDS011;27746;52.228;20.890;2023-11-21T09:30:05;24.20;;;12.13;;
42084;SDS011;27746;52.228;20.890;2023-11-21T09:32:35;22.77;;;11.20;;
42084;SDS011;27746;52.228;20.890;2023-11-21T09:35:04;24.80;;;11.68;;
42084;SDS011;27746;52.228;20.890;2023-11-21T09:37:33;24.25;;;12.40;;
42084;SDS011;27746;52.228;20.890;2023-11-21T09:40:01;25.65;;;13.07;;
42084;SDS011;27746;52.228;20.890;2023-11-21T09:42:30;25.40;;;13.02;;
42084;SDS011;27746;52.228;20.890;2023-11-21T09:45:05;25.58;;;12.73;;
42084;SDS011;27746;52.228;20.890;2023-11-21T09:47:40;24.05;;;12.25;;
42084;SDS011;27746;52.228;20.890;2023-11-21T09:50:10;23.13;;;13.00;;
42084;SDS011;27746;52.228;20.890;2023-11-21T09:52:44;22.83;;;12.02;;
42084;SDS011;27746;52.228;20.890;2023-11-21T09:55:20;24.60;;;13.38;;
42084;SDS011;27746;52.228;20.890;2023-11-21T09:57:48;26.75;;;12.18;;
42084;SDS011;27746;52.228;20.890;2023-11-21T10:00:16;24.67;;;11.98;;
42084;SDS011;27746;52.228;20.890;2023-11-21T10:02:45;23.92;;;11.98;;
42084;SDS011;27746;52.228;20.890;2023-11-21T10:05:16;22.95;;;12.05;;
42084;SDS011;27746;52.228;20.890;2023-11-21T10:07:47;24.15;;;12.57;;
42084;SDS011;27746;52.228;20.890;2023-11-21T10:10:16;21.80;;;11.35;;
42084;SDS011;27746;52.228;20.890;2023-11-21T10:12:47;24.45;;;11.75;;
42084;SDS011;27746;52.228;20.890;2023-11-21T10:15:18;20.88;;;10.80;;
42084;SDS011;27746;52.228;20.890;2023-11-21T10:17:48;26.33;;;11.70;;
42084;SDS011;27746;52.228;20.890;2023-11-21T10:20:18;21.48;;;11.38;;
42084;SDS011;27746;52.228;20.890;2023-11-21T10:22:46;25.67;;;12.73;;
42084;SDS011;27746;52.228;20.890;2023-11-21T10:25:13;19.40;;;10.75;;
42084;SDS011;27746;52.228;20.890;2023-11-21T10:27:40;23.15;;;12.18;;
42084;SDS011;27746;52.228;20.890;2023-11-21T10:30:08;21.85;;;10.68;;
42084;SDS011;27746;52.228;20.890;2023-11-21T10:32:37;18.75;;;11.18;;
42084;SDS011;27746;52.228;20.890;2023-11-21T10:35:05;23.83;;;12.27;;
42084;SDS011;27746;52.228;20.890;2023-11-21T10:37:36;25.10;;;12.77;;
42084;SDS011;27746;52.228;20.890;2023-11-21T10:40:05;22.83;;;11.18;;
42084;SDS011;27746;52.228;20.890;2023-11-21T10:42:36;21.95;;;12.68;;
42084;SDS011;27746;52.228;20.890;2023-11-21T10:45:04;27.25;;;12.20;;
42084;SDS011;27746;52.228;20.890;2023-11-21T10:47:38;25.73;;;12.60;;
42084;SDS011;27746;52.228;20.890;2023-11-21T10:50:05;23.80;;;12.00;;
42084;SDS011;27746;52.228;20.890;2023-11-21T10:52:37;27.17;;;14.35;;
42084;SDS011;27746;52.228;20.890;2023-11-21T10:55:15;29.33;;;13.23;;
42084;SDS011;27746;52.228;20.890;2023-11-21T10:57:44;24.17;;;12.23;;
42084;SDS011;27746;52.228;20.890;2023-11-21T11:00:14;27.20;;;13.02;;
42084;SDS011;27746;52.228;20.890;2023-11-21T11:02:45;24.48;;;12.68;;
42084;SDS011;27746;52.228;20.890;2023-11-21T11:05:14;25.83;;;13.38;;
42084;SDS011;27746;52.228;20.890;2023-11-21T11:07:46;29.27;;;13.63;;
42084;SDS011;27746;52.228;20.890;2023-11-21T11:10:17;22.10;;;11.77;;
42084;SDS011;27746;52.228;20.890;2023-11-21T11:12:46;26.67;;;13.52;;
42084;SDS011;27746;52.228;20.890;2023-11-21T11:15:13;27.20;;;13.13;;
42084;SDS011;27746;52.228;20.890;2023-11-21T11:17:42;24.60;;;13.18;;
42084;SDS011;27746;52.228;20.890;2023-11-21T11:20:10;24.25;;;12.93;;
42084;SDS011;27746;52.228;20.890;2023-11-21T11:22:42;26.70;;;12.68;;
42084;SDS011;27746;52.228;20.890;2023-11-21T11:25:21;30.40;;;13.00;;
42084;SDS011;27746;52.228;20.890;2023-11-21T11:27:57;25.63;;;12.85;;
42084;SDS011;27746;52.228;20.890;2023-11-21T11:30:35;23.25;;;11.95;;
42084;SDS011;27746;52.228;20.890;2023-11-21T11:33:12;26.70;;;13.60;;
42084;SDS011;27746;52.228;20.890;2023-11-21T11:35:51;23.17;;;12.50;;
42084;SDS011;27746;52.228;20.890;2023-11-21T11:38:23;24.92;;;12.88;;
42084;SDS011;27746;52.228;20.890;2023-11-21T11:40:54;23.50;;;14.00;;
42084;SDS011;27746;52.228;20.890;2023-11-21T11:43:27;23.70;;;13.93;;
42084;SDS011;27746;52.228;20.890;2023-11-21T11:45:55;26.35;;;13.65;;
42084;SDS011;27746;52.228;20.890;2023-11-21T11:48:24;22.98;;;13.15;;
42084;SDS011;27746;52.228;20.890;2023-11-21T11:51:04;25.20;;;13.20;;
42084;SDS011;27746;52.228;20.890;2023-11-21T11:53:37;25.27;;;13.45;;
42084;SDS011;27746;52.228;20.890;2023-11-21T11:56:23;26.92;;;13.88;;
42084;SDS011;27746;52.228;20.890;2023-11-21T11:58:53;28.55;;;14.18;;
42084;SDS011;27746;52.228;20.890;2023-11-21T12:01:21;29.90;;;13.52;;
42084;SDS011;27746;52.228;20.890;2023-11-21T12:06:56;26.50;;;11.75;;
42084;SDS011;27746;52.228;20.890;2023-11-21T12:09:25;26.38;;;12.30;;
42084;SDS011;27746;52.228;20.890;2023-11-21T12:11:54;24.83;;;12.63;;
42084;SDS011;27746;52.228;20.890;2023-11-21T12:14:22;30.88;;;13.27;;
42084;SDS011;27746;52.228;20.890;2023-11-21T12:16:49;29.65;;;14.30;;
42084;SDS011;27746;52.228;20.890;2023-11-21T12:19:16;27.70;;;14.65;;
42084;SDS011;27746;52.228;20.890;2023-11-21T12:21:45;25.65;;;13.70;;
42084;SDS011;27746;52.228;20.890;2023-11-21T12:24:13;25.73;;;13.15;;
42084;SDS011;27746;52.228;20.890;2023-11-21T12:26:41;25.10;;;12.25;;
42084;SDS011;27746;52.228;20.890;2023-11-21T12:29:10;23.00;;;13.05;;
42084;SDS011;27746;52.228;20.890;2023-11-21T12:31:37;24.88;;;12.85;;
42084;SDS011;27746;52.228;20.890;2023-11-21T12:34:05;23.20;;;12.70;;
42084;SDS011;27746;52.228;20.890;2023-11-21T12:36:32;28.35;;;13.18;;
42084;SDS011;27746;52.228;20.890;2023-11-21T12:38:59;24.20;;;13.30;;
42084;SDS011;27746;52.228;20.890;2023-11-21T12:41:27;28.13;;;13.25;;
42084;SDS011;27746;52.228;20.890;2023-11-21T12:43:55;26.90;;;13.40;;
42084;SDS011;27746;52.228;20.890;2023-11-21T12:46:23;25.20;;;13.50;;
42084;SDS011;27746;52.228;20.890;2023-11-21T12:48:54;24.27;;;13.55;;
42084;SDS011;27746;52.228;20.890;2023-11-21T12:51:21;22.35;;;13.40;;
42084;SDS011;27746;52.228;20.890;2023-11-21T12:53:49;25.98;;;13.63;;
42084;SDS011;27746;52.228;20.890;2023-11-21T12:56:16;24.13;;;14.98;;
42084;SDS011;27746;52.228;20.890;2023-11-21T12:58:45;25.65;;;13.10;;
42084;SDS011;27746;52.228;20.890;2023-11-21T13:01:13;28.23;;;13.52;;
42084;SDS011;27746;52.228;20.890;2023-11-21T13:03:45;26.77;;;13.55;;
42084;SDS011;27746;52.228;20.890;2023-11-21T13:06:13;26.92;;;12.50;;
42084;SDS011;27746;52.228;20.890;2023-11-21T13:08:41;29.15;;;13.65;;
42084;SDS011;27746;52.228;20.890;2023-11-21T13:11:09;24.75;;;12.60;;
42084;SDS011;27746;52.228;20.890;2023-11-21T13:13:39;26.33;;;13.20;;
42084;SDS011;27746;52.228;20.890;2023-11-21T13:16:07;28.30;;;12.60;;
42084;SDS011;27746;52.228;20.890;2023-11-21T13:18:35;25.13;;;13.30;;
42084;SDS011;27746;52.228;20.890;2023-11-21T13:21:04;24.38;;;13.80;;
42084;SDS011;27746;52.228;20.890;2023-11-21T13:23:36;24.20;;;13.55;;
42084;SDS011;27746;52.228;20.890;2023-11-21T13:26:04;25.88;;;13.43;;
42084;SDS011;27746;52.228;20.890;2023-11-21T13:28:31;25.35;;;13.60;;
42084;SDS011;27746;52.228;20.890;2023-11-21T13:30:59;25.80;;;13.73;;
42084;SDS011;27746;52.228;20.890;2023-11-21T13:33:29;23.00;;;14.30;;
42084;SDS011;27746;52.228;20.890;2023-11-21T13:35:58;25.63;;;13.48;;
42084;SDS011;27746;52.228;20.890;2023-11-21T13:38:28;27.88;;;14.38;;
42084;SDS011;27746;52.228;20.890;2023-11-21T13:40:58;25.30;;;13.95;;
42084;SDS011;27746;52.228;20.890;2023-11-21T13:43:25;26.50;;;14.30;;
42084;SDS011;27746;52.228;20.890;2023-11-21T13:45:54;27.95;;;14.75;;
42084;SDS011;27746;52.228;20.890;2023-11-21T13:48:26;24.83;;;14.30;;
42084;SDS011;27746;52.228;20.890;2023-11-21T13:50:59;24.52;;;14.02;;
42084;SDS011;27746;52.228;20.890;2023-11-21T13:53:37;26.83;;;13.50;;
42084;SDS011;27746;52.228;20.890;2023-11-21T13:56:04;30.77;;;15.00;;
42084;SDS011;27746;52.228;20.890;2023-11-21T13:58:31;23.45;;;13.23;;
42084;SDS011;27746;52.228;20.890;2023-11-21T14:01:06;29.05;;;14.70;;
42084;SDS011;27746;52.228;20.890;2023-11-21T14:03:41;27.02;;;12.55;;
42084;SDS011;27746;52.228;20.890;2023-11-21T14:06:16;25.67;;;13.10;;
42084;SDS011;27746;52.228;20.890;2023-11-21T14:08:50;32.30;;;14.82;;
42084;SDS011;27746;52.228;20.890;2023-11-21T14:11:18;28.50;;;14.07;;
42084;SDS011;27746;52.228;20.890;2023-11-21T14:13:48;30.15;;;15.95;;
42084;SDS011;27746;52.228;20.890;2023-11-21T14:16:15;36.55;;;17.88;;
42084;SDS011;27746;52.228;20.890;2023-11-21T14:18:43;38.30;;;19.65;;